sensor_id;sensor_type;location;lat;lon;timestamp;P1;durP1;ratioP1;P2;durP2;ratioP2
46284;SDS011;32018;59.182;18.148;2022-07-04T00:00:46;0.20;;;0.20;;
46284;SDS011;32018;59.182;18.148;2022-07-04T00:03:12;0.40;;;0.20;;
46284;SDS011;32018;59.182;18.148;2022-07-04T00:05:37;0.17;;;0.17;;
46284;SDS011;32018;59.182;18.148;2022-07-04T00:08:02;0.20;;;0.20;;
46284;SDS011;32018;59.182;18.148;2022-07-04T00:10:28;0.50;;;0.20;;
46284;SDS011;32018;59.182;18.148;2022-07-04T00:12:53;0.30;;;0.20;;
46284;SDS011;32018;59.182;18.148;2022-07-04T00:15:19;0.40;;;0.20;;
46284;SDS011;32018;59.182;18.148;2022-07-04T00:17:44;0.22;;;0.20;;
46284;SDS011;32018;59.182;18.148;2022-07-04T00:20:09;0.47;;;0.30;;
46284;SDS011;32018;59.182;18.148;2022-07-04T00:22:37;0.20;;;0.20;;
46284;SDS011;32018;59.182;18.148;2022-07-04T00:25:02;0.25;;;0.25;;
46284;SDS011;32018;59.182;18.148;2022-07-04T00:27:28;0.50;;;0.25;;
46284;SDS011;32018;59.182;18.148;2022-07-04T00:29:53;0.43;;;0.30;;
46284;SDS011;32018;59.182;18.148;2022-07-04T00:32:18;0.57;;;0.30;;
46284;SDS011;32018;59.182;18.148;2022-07-04T00:34:44;0.28;;;0.20;;
46284;SDS011;32018;59.182;18.148;2022-07-04T00:37:09;0.20;;;0.20;;
46284;SDS011;32018;59.182;18.148;2022-07-04T00:39:34;0.20;;;0.20;;
46284;SDS011;32018;59.182;18.148;2022-07-04T00:42:00;0.25;;;0.25;;
46284;SDS011;32018;59.182;18.148;2022-07-04T00:44:25;0.27;;;0.23;;
46284;SDS011;32018;59.182;18.148;2022-07-04T00:46:50;0.20;;;0.20;;
46284;SDS011;32018;59.182;18.148;2022-07-04T00:49:16;0.40;;;0.20;;
46284;SDS011;32018;59.182;18.148;2022-07-04T00:51:42;0.47;;;0.28;;
46284;SDS011;32018;59.182;18.148;2022-07-04T00:54:09;0.20;;;0.20;;
46284;SDS011;32018;59.182;18.148;2022-07-04T00:56:39;0.28;;;0.22;;
46284;SDS011;32018;59.182;18.148;2022-07-04T00:59:04;0.20;;;0.20;;
46284;SDS011;32018;59.182;18.148;2022-07-04T01:01:30;0.10;;;0.10;;
46284;SDS011;32018;59.182;18.148;2022-07-04T01:03:56;0.20;;;0.20;;
46284;SDS011;32018;59.182;18.148;2022-07-04T01:06:22;0.20;;;0.20;;
46284;SDS011;32018;59.182;18.148;2022-07-04T01:08:47;0.28;;;0.20;;
46284;SDS011;32018;59.182;18.148;2022-07-04T01:11:12;0.20;;;0.20;;
46284;SDS011;32018;59.182;18.148;2022-07-04T01:13:38;0.52;;;0.30;;
46284;SDS011;32018;59.182;18.148;2022-07-04T01:16:03;0.15;;;0.15;;
46284;SDS011;32018;59.182;18.148;2022-07-04T01:18:30;0.20;;;0.20;;
46284;SDS011;32018;59.182;18.148;2022-07-04T01:20:55;0.25;;;0.20;;
46284;SDS011;32018;59.182;18.148;2022-07-04T01:23:20;0.30;;;0.30;;
46284;SDS011;32018;59.182;18.148;2022-07-04T01:25:46;0.20;;;0.20;;
46284;SDS011;32018;59.182;18.148;2022-07-04T01:28:11;0.17;;;0.17;;
46284;SDS011;32018;59.182;18.148;2022-07-04T01:30:37;0.40;;;0.40;;
46284;SDS011;32018;59.182;18.148;2022-07-04T01:33:02;0.20;;;0.20;;
46284;SDS011;32018;59.182;18.148;2022-07-04T01:35:28;0.38;;;0.30;;
46284;SDS011;32018;59.182;18.148;2022-07-04T01:37:54;0.20;;;0.20;;
46284;SDS011;32018;59.182;18.148;2022-07-04T01:40:19;0.40;;;0.30;;
46284;SDS011;32018;59.182;18.148;2022-07-04T01:42:44;0.77;;;0.40;;
46284;SDS011;32018;59.182;18.148;2022-07-04T01:45:10;1.15;;;0.47;;
46284;SDS011;32018;59.182;18.148;2022-07-04T01:47:36;0.85;;;0.40;;
46284;SDS011;32018;59.182;18.148;2022-07-04T01:50:01;0.20;;;0.20;;
46284;SDS011;32018;59.182;18.148;2022-07-04T01:52:27;0.20;;;0.20;;
46284;SDS011;32018;59.182;18.148;2022-07-04T01:54:52;0.65;;;0.30;;
46284;SDS011;32018;59.182;18.148;2022-07-04T01:57:17;0.30;;;0.20;;
46284;SDS011;32018;59.182;18.148;2022-07-04T01:59:43;0.23;;;0.20;;
46284;SDS011;32018;59.182;18.148;2022-07-04T02:02:26;0.20;;;0.20;;
46284;SDS011;32018;59.182;18.148;2022-07-04T02:04:52;0.20;;;0.20;;
46284;SDS011;32018;59.182;18.148;2022-07-04T02:07:17;0.68;;;0.40;;
46284;SDS011;32018;59.182;18.148;2022-07-04T02:09:43;0.50;;;0.30;;
46284;SDS011;32018;59.182;18.148;2022-07-04T02:12:08;0.55;;;0.30;;
46284;SDS011;32018;59.182;18.148;2022-07-04T02:14:52;0.32;;;0.20;;
46284;SDS011;32018;59.182;18.148;2022-07-04T02:17:17;0.20;;;0.20;;
46284;SDS011;32018;59.182;18.148;2022-07-04T02:19:43;0.20;;;0.20;;
46284;SDS011;32018;59.182;18.148;2022-07-04T02:22:08;0.20;;;0.20;;
46284;SDS011;32018;59.182;18.148;2022-07-04T02:24:33;0.88;;;0.25;;
46284;SDS011;32018;59.182;18.148;2022-07-04T02:26:59;0.20;;;0.20;;
46284;SDS011;32018;59.182;18.148;2022-07-04T02:29:24;0.22;;;0.20;;
46284;SDS011;32018;59.182;18.148;2022-07-04T02:31:49;0.43;;;0.25;;
46284;SDS011;32018;59.182;18.148;2022-07-04T02:34:14;0.27;;;0.20;;
46284;SDS011;32018;59.182;18.148;2022-07-04T02:36:40;0.13;;;0.13;;
46284;SDS011;32018;59.182;18.148;2022-07-04T02:39:05;0.20;;;0.20;;
46284;SDS011;32018;59.182;18.148;2022-07-04T02:41:31;0.17;;;0.17;;
46284;SDS011;32018;59.182;18.148;2022-07-04T02:43:57;0.20;;;0.20;;
46284;SDS011;32018;59.182;18.148;2022-07-04T02:46:22;0.20;;;0.20;;
46284;SDS011;32018;59.182;18.148;2022-07-04T02:48:48;0.38;;;0.20;;
46284;SDS011;32018;59.182;18.148;2022-07-04T02:51:13;0.20;;;0.20;;
46284;SDS011;32018;59.182;18.148;2022-07-04T02:53:38;0.10;;;0.10;;
46284;SDS011;32018;59.182;18.148;2022-07-04T02:56:03;0.10;;;0.10;;
46284;SDS011;32018;59.182;18.148;2022-07-04T02:58:30;0.20;;;0.20;;
46284;SDS011;32018;59.182;18.148;2022-07-04T03:00:55;0.20;;;0.20;;
46284;SDS011;32018;59.182;18.148;2022-07-04T03:03:20;0.20;;;0.20;;
46284;SDS011;32018;59.182;18.148;2022-07-04T03:05:46;0.43;;;0.20;;
46284;SDS011;32018;59.182;18.148;2022-07-04T03:08:12;0.60;;;0.30;;
46284;SDS011;32018;59.182;18.148;2022-07-04T03:10:37;0.32;;;0.30;;
46284;SDS011;32018;59.182;18.148;2022-07-04T03:13:02;0.20;;;0.15;;
46284;SDS011;32018;59.182;18.148;2022-07-04T03:15:27;0.20;;;0.20;;
46284;SDS011;32018;59.182;18.148;2022-07-04T03:17:53;0.27;;;0.20;;
46284;SDS011;32018;59.182;18.148;2022-07-04T03:20:18;0.20;;;0.20;;
46284;SDS011;32018;59.182;18.148;2022-07-04T03:22:43;0.13;;;0.13;;
46284;SDS011;32018;59.182;18.148;2022-07-04T03:25:08;0.50;;;0.50;;
46284;SDS011;32018;59.182;18.148;2022-07-04T03:27:34;0.20;;;0.20;;
46284;SDS011;32018;59.182;18.148;2022-07-04T03:29:59;0.20;;;0.20;;
46284;SDS011;32018;59.182;18.148;2022-07-04T03:32:24;0.20;;;0.20;;
46284;SDS011;32018;59.182;18.148;2022-07-04T03:34:50;0.20;;;0.20;;
46284;SDS011;32018;59.182;18.148;2022-07-04T03:37:15;0.95;;;0.60;;
46284;SDS011;32018;59.182;18.148;2022-07-04T03:39:40;0.20;;;0.20;;
46284;SDS011;32018;59.182;18.148;2022-07-04T03:42:06;0.20;;;0.20;;
46284;SDS011;32018;59.182;18.148;2022-07-04T03:44:31;0.30;;;0.30;;
46284;SDS011;32018;59.182;18.148;2022-07-04T03:46:56;0.70;;;0.57;;
46284;SDS011;32018;59.182;18.148;2022-07-04T03:49:23;1.05;;;0.35;;
46284;SDS011;32018;59.182;18.148;2022-07-04T03:51:49;0.60;;;0.40;;
46284;SDS011;32018;59.182;18.148;2022-07-04T03:54:14;0.30;;;0.30;;
46284;SDS011;32018;59.182;18.148;2022-07-04T03:56:39;2.13;;;0.50;;
46284;SDS011;32018;59.182;18.148;2022-07-04T03:59:04;0.45;;;0.30;;
46284;SDS011;32018;59.182;18.148;2022-07-04T04:01:30;1.25;;;0.60;;
46284;SDS011;32018;59.182;18.148;2022-07-04T04:03:55;0.95;;;0.82;;
46284;SDS011;32018;59.182;18.148;2022-07-04T04:06:39;0.80;;;0.35;;
46284;SDS011;32018;59.182;18.148;2022-07-04T04:09:05;0.22;;;0.22;;
46284;SDS011;32018;59.182;18.148;2022-07-04T04:11:30;0.57;;;0.30;;
46284;SDS011;32018;59.182;18.148;2022-07-04T04:13:56;0.45;;;0.20;;
46284;SDS011;32018;59.182;18.148;2022-07-04T04:16:21;0.98;;;0.35;;
46284;SDS011;32018;59.182;18.148;2022-07-04T04:18:46;1.75;;;0.65;;
46284;SDS011;32018;59.182;18.148;2022-07-04T04:21:12;0.77;;;0.50;;
46284;SDS011;32018;59.182;18.148;2022-07-04T04:23:37;1.35;;;0.68;;
46284;SDS011;32018;59.182;18.148;2022-07-04T04:26:02;0.60;;;0.30;;
46284;SDS011;32018;59.182;18.148;2022-07-04T04:28:27;2.85;;;0.60;;
46284;SDS011;32018;59.182;18.148;2022-07-04T04:30:53;0.97;;;0.60;;
46284;SDS011;32018;59.182;18.148;2022-07-04T04:33:18;0.70;;;0.50;;
46284;SDS011;32018;59.182;18.148;2022-07-04T04:35:43;0.70;;;0.40;;
46284;SDS011;32018;59.182;18.148;2022-07-04T04:38:09;0.82;;;0.50;;
46284;SDS011;32018;59.182;18.148;2022-07-04T04:40:34;2.23;;;0.80;;
46284;SDS011;32018;59.182;18.148;2022-07-04T04:42:59;1.60;;;0.50;;
46284;SDS011;32018;59.182;18.148;2022-07-04T04:45:24;0.90;;;0.30;;
46284;SDS011;32018;59.182;18.148;2022-07-04T04:47:50;0.47;;;0.47;;
46284;SDS011;32018;59.182;18.148;2022-07-04T04:50:16;1.70;;;0.55;;
46284;SDS011;32018;59.182;18.148;2022-07-04T04:52:42;0.70;;;0.55;;
46284;SDS011;32018;59.182;18.148;2022-07-04T04:55:07;1.13;;;0.30;;
46284;SDS011;32018;59.182;18.148;2022-07-04T04:57:32;1.05;;;0.50;;
46284;SDS011;32018;59.182;18.148;2022-07-04T04:59:58;0.93;;;0.50;;
46284;SDS011;32018;59.182;18.148;2022-07-04T05:02:23;0.77;;;0.40;;
46284;SDS011;32018;59.182;18.148;2022-07-04T05:04:48;1.47;;;0.63;;
46284;SDS011;32018;59.182;18.148;2022-07-04T05:07:14;0.82;;;0.40;;
46284;SDS011;32018;59.182;18.148;2022-07-04T05:09:39;1.92;;;0.50;;
46284;SDS011;32018;59.182;18.148;2022-07-04T05:12:04;0.98;;;0.50;;
46284;SDS011;32018;59.182;18.148;2022-07-04T05:14:30;1.85;;;0.88;;
46284;SDS011;32018;59.182;18.148;2022-07-04T05:16:55;1.00;;;0.40;;
46284;SDS011;32018;59.182;18.148;2022-07-04T05:19:20;0.80;;;0.40;;
46284;SDS011;32018;59.182;18.148;2022-07-04T05:21:46;2.15;;;0.70;;
46284;SDS011;32018;59.182;18.148;2022-07-04T05:24:11;0.43;;;0.33;;
46284;SDS011;32018;59.182;18.148;2022-07-04T05:26:36;1.58;;;0.70;;
46284;SDS011;32018;59.182;18.148;2022-07-04T05:29:02;2.05;;;0.73;;
46284;SDS011;32018;59.182;18.148;2022-07-04T05:31:27;0.88;;;0.50;;
46284;SDS011;32018;59.182;18.148;2022-07-04T05:33:52;0.40;;;0.40;;
46284;SDS011;32018;59.182;18.148;2022-07-04T05:36:19;1.92;;;0.60;;
46284;SDS011;32018;59.182;18.148;2022-07-04T05:38:44;0.95;;;0.35;;
46284;SDS011;32018;59.182;18.148;2022-07-04T05:41:09;1.55;;;0.60;;
46284;SDS011;32018;59.182;18.148;2022-07-04T05:43:35;0.40;;;0.40;;
46284;SDS011;32018;59.182;18.148;2022-07-04T05:46:00;1.03;;;0.33;;
46284;SDS011;32018;59.182;18.148;2022-07-04T05:48:25;1.55;;;0.50;;
46284;SDS011;32018;59.182;18.148;2022-07-04T05:50:50;1.65;;;0.55;;
46284;SDS011;32018;59.182;18.148;2022-07-04T05:53:16;0.80;;;0.47;;
46284;SDS011;32018;59.182;18.148;2022-07-04T05:55:41;0.93;;;0.50;;
46284;SDS011;32018;59.182;18.148;2022-07-04T05:58:07;0.57;;;0.30;;
46284;SDS011;32018;59.182;18.148;2022-07-04T06:00:32;0.50;;;0.43;;
46284;SDS011;32018;59.182;18.148;2022-07-04T06:02:58;1.35;;;0.60;;
46284;SDS011;32018;59.182;18.148;2022-07-04T06:05:23;0.43;;;0.30;;
46284;SDS011;32018;59.182;18.148;2022-07-04T06:07:48;0.45;;;0.30;;
46284;SDS011;32018;59.182;18.148;2022-07-04T06:10:14;1.55;;;0.55;;
46284;SDS011;32018;59.182;18.148;2022-07-04T06:12:39;0.40;;;0.40;;
46284;SDS011;32018;59.182;18.148;2022-07-04T06:15:04;1.02;;;0.50;;
46284;SDS011;32018;59.182;18.148;2022-07-04T06:17:31;0.73;;;0.50;;
46284;SDS011;32018;59.182;18.148;2022-07-04T06:19:56;1.13;;;0.50;;
46284;SDS011;32018;59.182;18.148;2022-07-04T06:22:21;0.90;;;0.60;;
46284;SDS011;32018;59.182;18.148;2022-07-04T06:24:46;1.53;;;0.60;;
46284;SDS011;32018;59.182;18.148;2022-07-04T06:27:12;0.45;;;0.30;;
46284;SDS011;32018;59.182;18.148;2022-07-04T06:29:37;2.23;;;0.90;;
46284;SDS011;32018;59.182;18.148;2022-07-04T06:32:02;1.52;;;0.68;;
46284;SDS011;32018;59.182;18.148;2022-07-04T06:34:28;1.67;;;0.80;;
46284;SDS011;32018;59.182;18.148;2022-07-04T06:37:11;1.08;;;0.65;;
46284;SDS011;32018;59.182;18.148;2022-07-04T06:39:37;1.47;;;0.50;;
46284;SDS011;32018;59.182;18.148;2022-07-04T06:42:02;1.77;;;0.60;;
46284;SDS011;32018;59.182;18.148;2022-07-04T06:44:27;1.27;;;0.70;;
46284;SDS011;32018;59.182;18.148;2022-07-04T06:46:53;1.80;;;1.02;;
46284;SDS011;32018;59.182;18.148;2022-07-04T06:49:18;1.02;;;0.50;;
46284;SDS011;32018;59.182;18.148;2022-07-04T06:51:44;2.15;;;0.80;;
46284;SDS011;32018;59.182;18.148;2022-07-04T06:54:09;2.20;;;0.70;;
46284;SDS011;32018;59.182;18.148;2022-07-04T06:56:34;0.35;;;0.32;;
46284;SDS011;32018;59.182;18.148;2022-07-04T06:58:59;2.70;;;0.80;;
46284;SDS011;32018;59.182;18.148;2022-07-04T07:01:25;1.77;;;0.70;;
46284;SDS011;32018;59.182;18.148;2022-07-04T07:03:50;1.33;;;0.60;;
46284;SDS011;32018;59.182;18.148;2022-07-04T07:06:16;1.08;;;0.60;;
46284;SDS011;32018;59.182;18.148;2022-07-04T07:08:41;0.93;;;0.63;;
46284;SDS011;32018;59.182;18.148;2022-07-04T07:11:06;1.13;;;0.50;;
46284;SDS011;32018;59.182;18.148;2022-07-04T07:13:42;0.45;;;0.45;;
46284;SDS011;32018;59.182;18.148;2022-07-04T07:16:07;2.10;;;0.50;;
46284;SDS011;32018;59.182;18.148;2022-07-04T07:18:32;1.30;;;0.70;;
46284;SDS011;32018;59.182;18.148;2022-07-04T07:20:57;0.93;;;0.40;;
46284;SDS011;32018;59.182;18.148;2022-07-04T07:23:23;1.00;;;0.50;;
46284;SDS011;32018;59.182;18.148;2022-07-04T07:25:48;0.65;;;0.40;;
46284;SDS011;32018;59.182;18.148;2022-07-04T07:28:13;1.77;;;0.60;;
46284;SDS011;32018;59.182;18.148;2022-07-04T07:30:39;0.63;;;0.40;;
46284;SDS011;32018;59.182;18.148;2022-07-04T07:33:04;2.15;;;0.68;;
46284;SDS011;32018;59.182;18.148;2022-07-04T07:35:29;0.60;;;0.50;;
46284;SDS011;32018;59.182;18.148;2022-07-04T07:37:54;1.15;;;0.50;;
46284;SDS011;32018;59.182;18.148;2022-07-04T07:40:20;0.75;;;0.40;;
46284;SDS011;32018;59.182;18.148;2022-07-04T07:42:45;5.43;;;0.57;;
46284;SDS011;32018;59.182;18.148;2022-07-04T07:45:11;3.78;;;0.70;;
46284;SDS011;32018;59.182;18.148;2022-07-04T07:47:36;0.98;;;0.50;;
46284;SDS011;32018;59.182;18.148;2022-07-04T07:50:01;1.60;;;0.38;;
46284;SDS011;32018;59.182;18.148;2022-07-04T07:52:28;1.88;;;0.50;;
46284;SDS011;32018;59.182;18.148;2022-07-04T07:54:54;0.90;;;0.40;;
46284;SDS011;32018;59.182;18.148;2022-07-04T07:57:19;1.30;;;1.17;;
46284;SDS011;32018;59.182;18.148;2022-07-04T07:59:44;2.17;;;1.03;;
46284;SDS011;32018;59.182;18.148;2022-07-04T08:02:09;0.85;;;0.55;;
46284;SDS011;32018;59.182;18.148;2022-07-04T08:04:35;0.30;;;0.30;;
46284;SDS011;32018;59.182;18.148;2022-07-04T08:07:07;0.85;;;0.50;;
46284;SDS011;32018;59.182;18.148;2022-07-04T08:09:33;1.92;;;0.52;;
46284;SDS011;32018;59.182;18.148;2022-07-04T08:11:59;1.23;;;0.50;;
46284;SDS011;32018;59.182;18.148;2022-07-04T08:14:24;1.92;;;0.60;;
46284;SDS011;32018;59.182;18.148;2022-07-04T08:16:50;1.05;;;0.50;;
46284;SDS011;32018;59.182;18.148;2022-07-04T08:19:15;0.87;;;0.57;;
46284;SDS011;32018;59.182;18.148;2022-07-04T08:21:40;0.75;;;0.40;;
46284;SDS011;32018;59.182;18.148;2022-07-04T08:24:06;0.80;;;0.60;;
46284;SDS011;32018;59.182;18.148;2022-07-04T08:26:31;1.58;;;1.00;;
46284;SDS011;32018;59.182;18.148;2022-07-04T08:28:57;1.30;;;0.80;;
46284;SDS011;32018;59.182;18.148;2022-07-04T08:31:24;1.10;;;0.60;;
46284;SDS011;32018;59.182;18.148;2022-07-04T08:33:50;2.00;;;0.82;;
46284;SDS011;32018;59.182;18.148;2022-07-04T08:36:15;1.08;;;0.55;;
46284;SDS011;32018;59.182;18.148;2022-07-04T08:38:40;1.90;;;0.83;;
46284;SDS011;32018;59.182;18.148;2022-07-04T08:41:05;1.48;;;0.90;;
46284;SDS011;32018;59.182;18.148;2022-07-04T08:43:31;2.15;;;0.60;;
46284;SDS011;32018;59.182;18.148;2022-07-04T08:45:59;0.70;;;0.57;;
46284;SDS011;32018;59.182;18.148;2022-07-04T08:48:24;2.90;;;1.85;;
46284;SDS011;32018;59.182;18.148;2022-07-04T08:50:53;2.10;;;1.02;;
46284;SDS011;32018;59.182;18.148;2022-07-04T08:53:19;1.67;;;0.88;;
46284;SDS011;32018;59.182;18.148;2022-07-04T08:55:46;1.17;;;0.47;;
46284;SDS011;32018;59.182;18.148;2022-07-04T08:58:30;1.38;;;0.52;;
46284;SDS011;32018;59.182;18.148;2022-07-04T09:00:57;0.52;;;0.47;;
46284;SDS011;32018;59.182;18.148;2022-07-04T09:03:23;1.83;;;0.88;;
46284;SDS011;32018;59.182;18.148;2022-07-04T09:05:48;1.17;;;0.60;;
46284;SDS011;32018;59.182;18.148;2022-07-04T09:08:14;1.50;;;0.70;;
46284;SDS011;32018;59.182;18.148;2022-07-04T09:10:39;1.35;;;0.65;;
46284;SDS011;32018;59.182;18.148;2022-07-04T09:13:05;2.05;;;0.90;;
46284;SDS011;32018;59.182;18.148;2022-07-04T09:15:30;1.75;;;0.73;;
46284;SDS011;32018;59.182;18.148;2022-07-04T09:17:56;2.00;;;1.75;;
46284;SDS011;32018;59.182;18.148;2022-07-04T09:20:22;0.85;;;0.80;;
46284;SDS011;32018;59.182;18.148;2022-07-04T09:22:48;1.15;;;0.80;;
46284;SDS011;32018;59.182;18.148;2022-07-04T09:25:14;0.98;;;0.60;;
46284;SDS011;32018;59.182;18.148;2022-07-04T09:27:40;3.40;;;0.70;;
46284;SDS011;32018;59.182;18.148;2022-07-04T09:30:07;1.20;;;0.60;;
46284;SDS011;32018;59.182;18.148;2022-07-04T09:32:51;1.20;;;0.52;;
46284;SDS011;32018;59.182;18.148;2022-07-04T09:35:19;1.52;;;0.75;;
46284;SDS011;32018;59.182;18.148;2022-07-04T09:37:46;1.45;;;0.70;;
46284;SDS011;32018;59.182;18.148;2022-07-04T09:40:34;0.60;;;0.60;;
46284;SDS011;32018;59.182;18.148;2022-07-04T09:42:58;0.70;;;0.60;;
46284;SDS011;32018;59.182;18.148;2022-07-04T09:45:24;1.23;;;0.60;;
46284;SDS011;32018;59.182;18.148;2022-07-04T09:47:50;1.20;;;0.60;;
46284;SDS011;32018;59.182;18.148;2022-07-04T09:50:17;0.77;;;0.55;;
46284;SDS011;32018;59.182;18.148;2022-07-04T09:52:47;1.20;;;0.70;;
46284;SDS011;32018;59.182;18.148;2022-07-04T09:55:19;1.17;;;0.80;;
46284;SDS011;32018;59.182;18.148;2022-07-04T09:57:45;3.28;;;2.22;;
46284;SDS011;32018;59.182;18.148;2022-07-04T10:02:45;0.60;;;0.57;;
46284;SDS011;32018;59.182;18.148;2022-07-04T10:05:10;0.80;;;0.55;;
46284;SDS011;32018;59.182;18.148;2022-07-04T10:07:40;1.53;;;0.70;;
46284;SDS011;32018;59.182;18.148;2022-07-04T10:10:21;2.08;;;0.80;;
46284;SDS011;32018;59.182;18.148;2022-07-04T10:12:54;1.80;;;0.80;;
46284;SDS011;32018;59.182;18.148;2022-07-04T10:15:19;1.27;;;0.90;;
46284;SDS011;32018;59.182;18.148;2022-07-04T10:17:45;1.35;;;1.00;;
46284;SDS011;32018;59.182;18.148;2022-07-04T10:20:10;2.47;;;1.20;;
46284;SDS011;32018;59.182;18.148;2022-07-04T10:22:36;1.95;;;0.70;;
46284;SDS011;32018;59.182;18.148;2022-07-04T10:25:02;4.50;;;0.95;;
46284;SDS011;32018;59.182;18.148;2022-07-04T10:27:28;1.17;;;0.70;;
46284;SDS011;32018;59.182;18.148;2022-07-04T10:29:53;2.42;;;1.38;;
46284;SDS011;32018;59.182;18.148;2022-07-04T10:32:19;3.30;;;2.75;;
46284;SDS011;32018;59.182;18.148;2022-07-04T10:34:45;4.35;;;2.90;;
46284;SDS011;32018;59.182;18.148;2022-07-04T10:37:10;1.02;;;0.75;;
46284;SDS011;32018;59.182;18.148;2022-07-04T10:39:35;0.50;;;0.50;;
46284;SDS011;32018;59.182;18.148;2022-07-04T10:42:01;0.77;;;0.70;;
46284;SDS011;32018;59.182;18.148;2022-07-04T10:44:27;2.35;;;0.90;;
46284;SDS011;32018;59.182;18.148;2022-07-04T10:46:59;1.25;;;0.70;;
46284;SDS011;32018;59.182;18.148;2022-07-04T10:49:25;1.10;;;1.00;;
46284;SDS011;32018;59.182;18.148;2022-07-04T10:52:10;1.70;;;1.58;;
46284;SDS011;32018;59.182;18.148;2022-07-04T10:54:37;2.10;;;0.80;;
46284;SDS011;32018;59.182;18.148;2022-07-04T10:59:35;1.02;;;1.00;;
46284;SDS011;32018;59.182;18.148;2022-07-04T11:07:13;1.25;;;0.80;;
46284;SDS011;32018;59.182;18.148;2022-07-04T11:09:39;4.28;;;2.58;;
46284;SDS011;32018;59.182;18.148;2022-07-04T11:12:04;5.22;;;2.70;;
46284;SDS011;32018;59.182;18.148;2022-07-04T11:17:10;1.02;;;0.70;;
46284;SDS011;32018;59.182;18.148;2022-07-04T11:19:36;1.80;;;1.70;;
46284;SDS011;32018;59.182;18.148;2022-07-04T11:22:02;2.00;;;1.73;;
46284;SDS011;32018;59.182;18.148;2022-07-04T11:24:27;1.13;;;0.90;;
46284;SDS011;32018;59.182;18.148;2022-07-04T11:26:53;2.60;;;1.67;;
46284;SDS011;32018;59.182;18.148;2022-07-04T11:29:18;1.83;;;1.13;;
46284;SDS011;32018;59.182;18.148;2022-07-04T11:31:44;2.15;;;1.17;;
46284;SDS011;32018;59.182;18.148;2022-07-04T11:34:10;1.15;;;0.93;;
46284;SDS011;32018;59.182;18.148;2022-07-04T11:36:36;2.35;;;1.20;;
46284;SDS011;32018;59.182;18.148;2022-07-04T11:39:03;1.88;;;1.15;;
46284;SDS011;32018;59.182;18.148;2022-07-04T11:41:30;1.23;;;0.80;;
46284;SDS011;32018;59.182;18.148;2022-07-04T11:44:15;2.63;;;0.85;;
46284;SDS011;32018;59.182;18.148;2022-07-04T11:47:10;1.05;;;0.95;;
46284;SDS011;32018;59.182;18.148;2022-07-04T11:49:36;1.20;;;0.50;;
46284;SDS011;32018;59.182;18.148;2022-07-04T11:52:05;1.97;;;0.90;;
46284;SDS011;32018;59.182;18.148;2022-07-04T11:54:31;1.20;;;0.60;;
46284;SDS011;32018;59.182;18.148;2022-07-04T11:57:12;0.85;;;0.55;;
46284;SDS011;32018;59.182;18.148;2022-07-04T11:59:38;2.90;;;2.63;;
46284;SDS011;32018;59.182;18.148;2022-07-04T12:02:10;1.23;;;0.90;;
46284;SDS011;32018;59.182;18.148;2022-07-04T12:04:36;1.60;;;1.33;;
46284;SDS011;32018;59.182;18.148;2022-07-04T12:07:08;2.83;;;1.90;;
46284;SDS011;32018;59.182;18.148;2022-07-04T12:09:33;2.45;;;1.80;;
46284;SDS011;32018;59.182;18.148;2022-07-04T12:11:59;3.33;;;1.33;;
46284;SDS011;32018;59.182;18.148;2022-07-04T12:14:25;1.23;;;0.85;;
46284;SDS011;32018;59.182;18.148;2022-07-04T12:17:08;0.90;;;0.75;;
46284;SDS011;32018;59.182;18.148;2022-07-04T12:19:33;2.15;;;1.20;;
46284;SDS011;32018;59.182;18.148;2022-07-04T12:21:59;2.23;;;1.37;;
46284;SDS011;32018;59.182;18.148;2022-07-04T12:24:26;1.63;;;1.00;;
46284;SDS011;32018;59.182;18.148;2022-07-04T12:26:51;2.40;;;1.30;;
46284;SDS011;32018;59.182;18.148;2022-07-04T12:29:23;1.47;;;0.80;;
46284;SDS011;32018;59.182;18.148;2022-07-04T12:31:51;1.02;;;0.70;;
46284;SDS011;32018;59.182;18.148;2022-07-04T12:34:16;2.10;;;0.90;;
46284;SDS011;32018;59.182;18.148;2022-07-04T12:39:26;0.80;;;0.70;;
46284;SDS011;32018;59.182;18.148;2022-07-04T12:42:02;2.45;;;1.00;;
46284;SDS011;32018;59.182;18.148;2022-07-04T12:44:27;1.70;;;0.80;;
46284;SDS011;32018;59.182;18.148;2022-07-04T12:46:55;1.37;;;0.80;;
46284;SDS011;32018;59.182;18.148;2022-07-04T12:49:21;0.95;;;0.85;;
46284;SDS011;32018;59.182;18.148;2022-07-04T12:51:46;1.20;;;0.50;;
46284;SDS011;32018;59.182;18.148;2022-07-04T12:54:11;0.55;;;0.55;;
46284;SDS011;32018;59.182;18.148;2022-07-04T12:56:41;0.52;;;0.52;;
46284;SDS011;32018;59.182;18.148;2022-07-04T12:59:16;2.17;;;0.85;;
46284;SDS011;32018;59.182;18.148;2022-07-04T13:01:45;1.08;;;0.60;;
46284;SDS011;32018;59.182;18.148;2022-07-04T13:04:10;1.52;;;0.70;;
46284;SDS011;32018;59.182;18.148;2022-07-04T13:06:36;0.80;;;0.70;;
46284;SDS011;32018;59.182;18.148;2022-07-04T13:09:02;1.85;;;1.00;;
46284;SDS011;32018;59.182;18.148;2022-07-04T13:11:28;0.93;;;0.70;;
46284;SDS011;32018;59.182;18.148;2022-07-04T13:14:12;1.15;;;0.77;;
46284;SDS011;32018;59.182;18.148;2022-07-04T13:16:37;1.40;;;0.70;;
46284;SDS011;32018;59.182;18.148;2022-07-04T13:19:02;1.77;;;1.00;;
46284;SDS011;32018;59.182;18.148;2022-07-04T13:21:28;1.77;;;0.90;;
46284;SDS011;32018;59.182;18.148;2022-07-04T13:23:53;0.75;;;0.70;;
46284;SDS011;32018;59.182;18.148;2022-07-04T13:26:19;1.53;;;0.90;;
46284;SDS011;32018;59.182;18.148;2022-07-04T13:28:44;0.68;;;0.68;;
46284;SDS011;32018;59.182;18.148;2022-07-04T13:31:10;3.35;;;1.00;;
46284;SDS011;32018;59.182;18.148;2022-07-04T13:33:35;1.35;;;1.20;;
46284;SDS011;32018;59.182;18.148;2022-07-04T13:36:00;1.23;;;0.90;;
46284;SDS011;32018;59.182;18.148;2022-07-04T13:38:26;2.08;;;0.93;;
46284;SDS011;32018;59.182;18.148;2022-07-04T13:40:51;1.33;;;0.80;;
46284;SDS011;32018;59.182;18.148;2022-07-04T13:43:17;1.65;;;0.80;;
46284;SDS011;32018;59.182;18.148;2022-07-04T13:45:42;2.15;;;1.25;;
46284;SDS011;32018;59.182;18.148;2022-07-04T13:48:13;2.80;;;1.00;;
46284;SDS011;32018;59.182;18.148;2022-07-04T13:50:38;0.60;;;0.60;;
46284;SDS011;32018;59.182;18.148;2022-07-04T13:53:04;2.30;;;0.93;;
46284;SDS011;32018;59.182;18.148;2022-07-04T13:55:30;1.27;;;0.75;;
46284;SDS011;32018;59.182;18.148;2022-07-04T13:57:55;1.45;;;0.63;;
46284;SDS011;32018;59.182;18.148;2022-07-04T14:00:21;1.10;;;0.82;;
46284;SDS011;32018;59.182;18.148;2022-07-04T14:02:46;3.13;;;1.13;;
46284;SDS011;32018;59.182;18.148;2022-07-04T14:05:11;2.00;;;0.90;;
46284;SDS011;32018;59.182;18.148;2022-07-04T14:07:36;0.80;;;0.73;;
46284;SDS011;32018;59.182;18.148;2022-07-04T14:10:02;1.08;;;0.70;;
46284;SDS011;32018;59.182;18.148;2022-07-04T14:12:27;1.23;;;0.82;;
46284;SDS011;32018;59.182;18.148;2022-07-04T14:14:53;1.50;;;0.80;;
46284;SDS011;32018;59.182;18.148;2022-07-04T14:17:18;1.15;;;1.00;;
46284;SDS011;32018;59.182;18.148;2022-07-04T14:19:43;1.60;;;0.90;;
46284;SDS011;32018;59.182;18.148;2022-07-04T14:22:08;1.60;;;0.80;;
46284;SDS011;32018;59.182;18.148;2022-07-04T14:24:34;2.42;;;0.70;;
46284;SDS011;32018;59.182;18.148;2022-07-04T14:26:59;2.20;;;0.73;;
46284;SDS011;32018;59.182;18.148;2022-07-04T14:29:24;1.20;;;0.60;;
46284;SDS011;32018;59.182;18.148;2022-07-04T14:31:50;1.30;;;0.70;;
46284;SDS011;32018;59.182;18.148;2022-07-04T14:34:16;1.70;;;1.00;;
46284;SDS011;32018;59.182;18.148;2022-07-04T14:36:41;1.08;;;0.70;;
46284;SDS011;32018;59.182;18.148;2022-07-04T14:39:07;1.67;;;0.80;;
46284;SDS011;32018;59.182;18.148;2022-07-04T14:41:33;1.02;;;0.73;;
46284;SDS011;32018;59.182;18.148;2022-07-04T14:43:58;1.45;;;0.80;;